createdAt,value
2022-09-27T00:02:28.311Z,96557.34
2022-09-27T00:07:30.372Z,96551.56
2022-09-27T00:12:32.411Z,96538.97
2022-09-27T00:17:34.363Z,96533.75
2022-09-27T00:22:36.574Z,96534.56
2022-09-27T00:27:38.498Z,96529.56
2022-09-27T00:32:40.404Z,96515.16
2022-09-27T00:37:42.993Z,96507.56
2022-09-27T00:42:45.223Z,96496.34
2022-09-27T00:48:01.129Z,96487.97
2022-09-27T00:53:23.828Z,96471.53
2022-09-27T00:58:37.747Z,96467.09
2022-09-27T01:03:45.464Z,96456.09
2022-09-27T01:08:47.632Z,96450.09
2022-09-27T01:14:15.162Z,96442.28
2022-09-27T01:19:39.386Z,96430.81
2022-09-27T01:24:41.433Z,96431.84
2022-09-27T01:30:01.987Z,96426.41
2022-09-27T01:35:34.595Z,96420.16
2022-09-27T01:40:42.516Z,96400.56
2022-09-27T01:46:11.924Z,96394.53
2022-09-27T01:51:45.437Z,96392.16
2022-09-27T01:56:52.407Z,96390.56
2022-09-27T02:02:03.612Z,96390.00
2022-09-27T02:07:25.585Z,96379.03
2022-09-27T02:12:35.906Z,96375.84
2022-09-27T02:17:51.442Z,96361.47
2022-09-27T02:23:31.896Z,96359.88
2022-09-27T02:28:56.457Z,96351.94
2022-09-27T02:34:13.923Z,96349.22
2022-09-27T02:39:17.971Z,96346.84
2022-09-27T02:44:21.469Z,96339.25
2022-09-27T02:49:42.257Z,96333.72
2022-09-27T02:55:24.883Z,96321.38
2022-09-27T03:01:01.541Z,96322.84
2022-09-27T03:06:37.861Z,96310.59
2022-09-27T03:11:39.708Z,96312.75
2022-09-27T03:16:41.864Z,96301.88
2022-09-27T03:22:04.193Z,96310.25
2022-09-27T03:27:06.437Z,96301.66
2022-09-27T03:32:08.298Z,96298.25
2022-09-27T03:37:37.925Z,96294.06
2022-09-27T03:42:39.932Z,96293.25
2022-09-27T03:47:42.041Z,96283.06
2022-09-27T03:52:44.879Z,96277.28
2022-09-27T03:57:47.544Z,96272.31
2022-09-27T04:02:51.726Z,96262.91
2022-09-27T04:07:59.772Z,96262.13
2022-09-27T04:13:04.536Z,96243.09
2022-09-27T04:18:11.831Z,96241.28
2022-09-27T04:23:31.793Z,96237.88
2022-09-27T04:28:33.814Z,96238.09
2022-09-27T04:33:35.724Z,96239.69
2022-09-27T04:38:41.938Z,96226.66
2022-09-27T04:43:44.190Z,96237.88
2022-09-27T04:48:46.255Z,96234.47
2022-09-27T04:53:48.137Z,96232.66
2022-09-27T04:58:50.148Z,96230.84
2022-09-27T05:03:52.464Z,96234.47
2022-09-27T05:08:54.446Z,96222.72
2022-09-27T05:14:01.960Z,96230.53
2022-09-27T05:19:04.763Z,96229.97
2022-09-27T05:24:25.422Z,96219.78
2022-09-27T05:29:28.819Z,96224.19
2022-09-27T05:34:45.206Z,96224.97
2022-09-27T05:39:47.356Z,96218.19
2022-09-27T05:44:49.330Z,96230.19
2022-09-27T05:49:51.898Z,96228.59
2022-09-27T05:54:53.835Z,96224.41
2022-09-27T05:59:55.856Z,96226.00
2022-09-27T06:05:15.861Z,96221.81
2022-09-27T06:10:37.731Z,96227.03
2022-09-27T06:15:44.009Z,96225.78
2022-09-27T06:20:46.284Z,96233.13
2022-09-27T06:25:49.233Z,96223.50
2022-09-27T06:31:15.584Z,96225.09
2022-09-27T06:36:51.504Z,96230.41
2022-09-27T06:41:58.288Z,96220.53
2022-09-27T06:47:19.470Z,96226.88
2022-09-27T06:52:38.176Z,96224.81
2022-09-27T06:57:58.705Z,96224.91
2022-09-27T07:03:03.273Z,96244.84
2022-09-27T07:08:40.240Z,96235.53
2022-09-27T07:13:43.729Z,96229.31
2022-09-27T07:18:48.449Z,96236.66
2022-09-27T07:23:50.703Z,96232.56
2022-09-27T07:28:53.537Z,96237.78
2022-09-27T07:33:57.253Z,96250.34
2022-09-27T07:39:00.193Z,96247.03
2022-09-27T07:44:02.596Z,96245.78
2022-09-27T07:49:08.222Z,96244.78
2022-09-27T07:54:25.197Z,96239.56
2022-09-27T07:59:49.368Z,96245.56
2022-09-27T08:04:54.146Z,96240.13
2022-09-27T08:09:57.103Z,96251.00
2022-09-27T08:15:01.535Z,96241.03
2022-09-27T08:20:06.554Z,96246.03
2022-09-27T08:25:30.597Z,96247.94
2022-09-27T08:31:00.243Z,96248.25
2022-09-27T08:36:03.534Z,96250.97
2022-09-27T08:41:29.237Z,96256.34
2022-09-27T08:46:48.880Z,96262.56
2022-09-27T08:51:54.156Z,96261.06
2022-09-27T08:57:03.901Z,96261.72
2022-09-27T09:02:16.266Z,96262.75
2022-09-27T09:07:32.582Z,96265.13
2022-09-27T09:12:48.623Z,96267.97
2022-09-27T09:18:20.964Z,96280.81
2022-09-27T09:23:50.433Z,96280.84
2022-09-27T09:29:20.664Z,96284.53
2022-09-27T09:34:28.200Z,96292.97
2022-09-27T09:39:44.384Z,96289.78
2022-09-27T09:45:00.267Z,96283.78
2022-09-27T09:50:18.553Z,96281.88
2022-09-27T09:55:23.555Z,96278.91
2022-09-27T10:00:26.107Z,96266.13
2022-09-27T10:05:29.444Z,96266.75
2022-09-27T10:10:38.628Z,96273.06
2022-09-27T10:16:12.032Z,96272.59
2022-09-27T10:21:38.723Z,96283.63
2022-09-27T10:26:44.123Z,96293.47
2022-09-27T10:31:48.727Z,96276.06
2022-09-27T10:37:17.377Z,96289.16
2022-09-27T10:42:38.992Z,96291.00
2022-09-27T10:47:44.643Z,96305.16
2022-09-27T10:53:06.934Z,96318.72
2022-09-27T10:58:20.817Z,96333.09
2022-09-27T11:03:26.505Z,96337.91
2022-09-27T11:08:34.147Z,96337.44
2022-09-27T11:14:05.281Z,96343.22
2022-09-27T11:19:36.616Z,96354.09
2022-09-27T11:25:04.877Z,96351.06
2022-09-27T11:30:14.087Z,96349.81
2022-09-27T11:35:42.283Z,96357.84
2022-09-27T11:41:22.931Z,96363.41
2022-09-27T11:46:41.330Z,96355.38
2022-09-27T11:51:52.073Z,96353.31
2022-09-27T11:57:23.383Z,96341.16
2022-09-27T12:02:54.767Z,96349.38
2022-09-27T12:08:08.787Z,96356.38
2022-09-27T12:13:14.727Z,96353.91
2022-09-27T12:18:35.403Z,96366.41
2022-09-27T12:23:47.469Z,96366.44
2022-09-27T12:29:27.840Z,96385.25
2022-09-27T12:34:50.841Z,96368.81
2022-09-27T12:39:55.840Z,96377.78
2022-09-27T12:45:05.833Z,96370.75
2022-09-27T12:50:07.678Z,96376.06
2022-09-27T12:55:12.431Z,96373.78
2022-09-27T13:00:25.714Z,96378.44
2022-09-27T13:06:00.677Z,96374.69
2022-09-27T13:11:30.495Z,96372.19
2022-09-27T13:16:46.890Z,96377.63
2022-09-27T13:21:51.475Z,96373.22
2022-09-27T13:27:36.566Z,96374.44
2022-09-27T13:32:41.030Z,96387.56
2022-09-27T13:37:54.304Z,96391.88
2022-09-27T13:43:13.446Z,96392.69
2022-09-27T13:48:36.679Z,96401.44
2022-09-27T13:53:41.363Z,96411.66
2022-09-27T13:58:52.824Z,96406.78
2022-09-27T14:04:18.355Z,96408.16
2022-09-27T14:09:32.071Z,96424.13
2022-09-27T14:14:49.972Z,96420.94
2022-09-27T14:19:54.280Z,96425.72
2022-09-27T14:24:58.133Z,96431.25
2022-09-27T14:30:17.296Z,96440.34
2022-09-27T14:35:50.471Z,96457.81
2022-09-27T14:40:53.398Z,96469.47
2022-09-27T14:46:07.161Z,96468.44
2022-09-27T14:51:15.074Z,96476.13
2022-09-27T14:56:32.530Z,96464.47
2022-09-27T15:01:35.265Z,96480.75
2022-09-27T15:06:37.350Z,96473.84
2022-09-27T15:11:41.695Z,96486.84
2022-09-27T15:16:49.469Z,96476.88
2022-09-27T15:21:51.626Z,96473.72
2022-09-27T15:26:53.460Z,96476.75
2022-09-27T15:32:06.926Z,96471.44
2022-09-27T15:37:26.405Z,96487.16
2022-09-27T15:42:28.279Z,96485.41
2022-09-27T15:47:34.576Z,96482.00
2022-09-27T15:52:43.777Z,96486.41
2022-09-27T15:57:50.628Z,96494.66
2022-09-27T16:02:52.886Z,96500.09
2022-09-27T16:07:54.730Z,96511.31
2022-09-27T16:12:56.709Z,96523.97
2022-09-27T16:17:59.101Z,96543.88
2022-09-27T16:23:00.968Z,96550.16
2022-09-27T16:28:05.331Z,96553.72
2022-09-27T16:33:07.078Z,96549.44
2022-09-27T16:38:09.333Z,96548.38
2022-09-27T16:43:12.139Z,96546.84
2022-09-27T16:48:13.983Z,96544.09
2022-09-27T16:53:16.091Z,96544.94
2022-09-27T16:58:17.943Z,96541.78
2022-09-27T17:03:19.816Z,96543.22
2022-09-27T17:08:26.331Z,96544.88
2022-09-27T17:13:28.167Z,96547.53
2022-09-27T17:18:29.926Z,96548.16
2022-09-27T17:23:32.691Z,96557.41
2022-09-27T17:28:36.677Z,96557.63
2022-09-27T17:33:46.140Z,96564.84
2022-09-27T17:38:49.145Z,96569.88
2022-09-27T17:43:56.557Z,96568.69
2022-09-27T17:49:17.497Z,96574.31
2022-09-27T17:54:22.894Z,96570.56
2022-09-27T17:59:26.289Z,96576.19
2022-09-27T18:04:28.551Z,96578.19
2022-09-27T18:09:30.525Z,96580.78
2022-09-27T18:14:32.343Z,96569.59
2022-09-27T18:19:34.098Z,96575.59
2022-09-27T18:24:35.967Z,96579.81
2022-09-27T18:29:37.803Z,96578.63
2022-09-27T18:34:40.355Z,96588.06
2022-09-27T18:39:42.137Z,96586.88
2022-09-27T18:44:43.857Z,96582.31
2022-09-27T18:49:45.553Z,96581.16
2022-09-27T18:54:47.567Z,96576.38
2022-09-27T18:59:49.502Z,96576.78
2022-09-27T19:04:51.337Z,96564.00
2022-09-27T19:09:53.664Z,96561.41
2022-09-27T19:14:55.512Z,96566.19
2022-09-27T19:19:57.317Z,96566.78
2022-09-27T19:24:59.362Z,96577.97
2022-09-27T19:30:01.300Z,96584.78
2022-09-27T19:35:04.187Z,96577.63
2022-09-27T19:40:06.907Z,96579.84
2022-09-27T19:45:11.699Z,96579.66
2022-09-27T19:50:13.589Z,96577.69
2022-09-27T19:55:15.877Z,96572.31
2022-09-27T20:00:17.828Z,96573.94
2022-09-27T20:05:19.592Z,96576.97
2022-09-27T20:10:21.759Z,96572.19
2022-09-27T20:15:23.647Z,96579.38
2022-09-27T20:20:25.496Z,96583.19
2022-09-27T20:25:28.528Z,96578.19
2022-09-27T20:30:30.406Z,96573.22
2022-09-27T20:35:32.287Z,96571.63
2022-09-27T20:40:34.109Z,96575.00
2022-09-27T20:45:35.938Z,96575.81
2022-09-27T20:50:37.686Z,96567.00
2022-09-27T20:55:39.490Z,96564.63
2022-09-27T21:00:41.595Z,96569.22
2022-09-27T21:05:43.438Z,96570.22
2022-09-27T21:10:49.150Z,96574.84
2022-09-27T21:15:53.680Z,96583.81
2022-09-27T21:21:05.182Z,96581.44
2022-09-27T21:26:12.646Z,96580.84
2022-09-27T21:31:22.343Z,96576.66
2022-09-27T21:36:28.195Z,96573.25
2022-09-27T21:41:30.024Z,96571.66
2022-09-27T21:46:32.007Z,96571.09
2022-09-27T21:51:37.631Z,96581.66
2022-09-27T21:56:40.901Z,96575.88
2022-09-27T22:01:44.362Z,96580.47
2022-09-27T22:06:46.232Z,96592.44
2022-09-27T22:11:48.134Z,96588.25
2022-09-27T22:16:50.054Z,96595.06
2022-09-27T22:21:51.911Z,96586.25
2022-09-27T22:26:54.250Z,96591.25
2022-09-27T22:31:55.995Z,96579.88
2022-09-27T22:37:00.865Z,96573.47
2022-09-27T22:42:02.648Z,96570.66
2022-09-27T22:47:05.384Z,96563.09
2022-09-27T22:52:07.178Z,96570.28
2022-09-27T22:57:08.926Z,96572.88
2022-09-27T23:02:10.713Z,96571.28
2022-09-27T23:07:13.313Z,96561.09
2022-09-27T23:12:15.047Z,96559.72
2022-09-27T23:17:19.274Z,96558.13
2022-09-27T23:22:21.232Z,96560.34
2022-09-27T23:27:41.706Z,96560.53
2022-09-27T23:32:47.303Z,96561.53
2022-09-27T23:37:53.300Z,96566.13
2022-09-27T23:42:55.092Z,96563.34
2022-09-27T23:47:57.592Z,96555.56
2022-09-27T23:52:59.681Z,96557.16
2022-09-27T23:58:02.013Z,96557.34
